Time;durP1;ratioP1;P1;durP2;ratioP2;P2;SDS_P1;SDS_P2;PMS_P1;PMS_P2;Temp;Humidity;BMP_temperature;BMP_pressure;BME280_temperature;BME280_humidity;BME280_pressure;Samples;Min_cycle;Max_cycle;Signal;HPM_P1;HPM_P2
2022/03/20 00:00:53;;;;;;;23.60;19.00;;;;;;;7.09;51.60;100210.84;4128015;28;20289;-32
2022/03/20 00:02:56;;;;;;;24.87;19.73;;;;;;;6.22;52.40;100230.03;4147716;28;20290;-32
2022/03/20 00:05:01;;;;;;;25.43;20.33;;;;;;;6.03;53.91;100190.16;4146615;28;20662;-33
2022/03/20 00:07:02;;;;;;;24.83;19.77;;;;;;;6.65;51.93;100207.31;4144572;28;20228;-32
2022/03/20 00:09:04;;;;;;;25.07;19.30;;;;;;;7.27;51.08;100192.63;4128572;28;20236;-33
2022/03/20 00:11:06;;;;;;;25.33;19.47;;;;;;;6.57;52.46;100205.28;4146123;28;20232;-31
2022/03/20 00:13:08;;;;;;;23.90;18.07;;;;;;;6.99;51.55;100183.47;4153378;28;20972;-31
2022/03/20 00:15:10;;;;;;;24.63;19.17;;;;;;;6.60;52.20;100178.59;4149510;28;20236;-32
2022/03/20 00:17:13;;;;;;;25.67;19.93;;;;;;;6.87;51.93;100174.72;4145410;28;20232;-32
2022/03/20 00:19:15;;;;;;;23.73;19.63;;;;;;;6.76;52.03;100175.59;4146071;28;20723;-34
2022/03/20 00:21:17;;;;;;;25.13;19.27;;;;;;;7.06;50.81;100188.16;4148324;28;20236;-33
2022/03/20 00:23:19;;;;;;;25.53;20.07;;;;;;;7.28;50.52;100173.16;4141187;28;20652;-33
2022/03/20 00:25:21;;;;;;;24.80;19.37;;;;;;;7.42;49.77;100188.72;4143825;28;20232;-32
2022/03/20 00:27:22;;;;;;;25.07;19.30;;;;;;;7.49;49.74;100183.75;4144628;28;20721;-32
2022/03/20 00:29:25;;;;;;;26.10;19.30;;;;;;;6.89;50.63;100196.59;4145216;28;20257;-34
2022/03/20 00:31:32;;;;;;;24.37;19.53;;;;;;;6.80;50.88;100184.94;4144618;28;20237;-32
2022/03/20 00:33:34;;;;;;;25.37;18.97;;;;;;;6.86;51.01;100173.03;4143795;28;20702;-32
2022/03/20 00:35:35;;;;;;;24.73;19.07;;;;;;;6.65;50.92;100200.25;4146343;28;20232;-34
2022/03/20 00:37:38;;;;;;;22.90;18.67;;;;;;;6.85;50.68;100174.00;4138786;28;20236;-33
2022/03/20 00:39:40;;;;;;;25.77;19.37;;;;;;;6.27;52.15;100153.09;4149367;28;20319;-34
2022/03/20 00:41:42;;;;;;;24.37;18.97;;;;;;;6.19;52.35;100155.50;4148119;28;20232;-32
2022/03/20 00:43:43;;;;;;;24.97;18.63;;;;;;;6.19;51.54;100169.53;4148282;28;20235;-32
2022/03/20 00:45:45;;;;;;;24.30;18.27;;;;;;;6.72;50.84;100147.72;4146897;28;20763;-32
2022/03/20 00:47:48;;;;;;;24.03;18.43;;;;;;;6.82;50.86;100142.53;4149032;28;20244;-32
2022/03/20 00:49:49;;;;;;;26.63;19.67;;;;;;;6.75;50.81;100157.22;4140900;28;20777;-32
2022/03/20 00:51:51;;;;;;;24.93;20.07;;;;;;;6.89;50.22;100160.41;4144053;28;20260;-31
2022/03/20 00:53:53;;;;;;;25.00;18.07;;;;;;;6.97;49.77;100132.53;4143124;28;20247;-34
2022/03/20 00:55:55;;;;;;;24.63;18.70;;;;;;;6.66;50.33;100166.72;4141696;28;20238;-33
2022/03/20 00:57:57;;;;;;;22.47;18.93;;;;;;;6.61;50.29;100142.47;4145862;28;20230;-34
2022/03/20 00:59:58;;;;;;;24.20;18.43;;;;;;;6.42;50.57;100141.31;4126225;28;20236;-33
2022/03/20 01:02:00;;;;;;;23.90;18.13;;;;;;;6.38;50.49;100139.84;4149647;28;20347;-31
2022/03/20 01:04:02;;;;;;;25.07;20.03;;;;;;;6.58;50.15;100145.34;4147331;28;20795;-32
2022/03/20 01:06:06;;;;;;;25.03;18.00;;;;;;;6.12;50.83;100136.66;4146804;28;20249;-32
2022/03/20 01:08:08;;;;;;;23.57;17.93;;;;;;;6.25;50.64;100155.84;4144191;28;20255;-32
2022/03/20 01:10:11;;;;;;;26.43;18.33;;;;;;;6.58;50.25;100132.16;4146029;28;20639;-34
2022/03/20 01:12:14;;;;;;;25.50;18.47;;;;;;;6.44;50.30;100126.16;4140286;28;20718;-33
2022/03/20 01:14:16;;;;;;;21.90;17.30;;;;;;;6.13;50.51;100136.53;4142913;28;20704;-33
2022/03/20 01:16:18;;;;;;;23.90;18.30;;;;;;;5.83;50.91;100137.13;4136589;28;20249;-33
2022/03/20 01:18:19;;;;;;;23.33;18.07;;;;;;;6.39;50.15;100122.22;4144941;28;20328;-33
2022/03/20 01:20:21;;;;;;;23.97;18.67;;;;;;;6.41;49.79;100115.00;4146269;28;20715;-32
2022/03/20 01:22:23;;;;;;;24.77;18.90;;;;;;;6.21;50.00;100124.53;4138621;28;20290;-35
2022/03/20 01:24:27;;;;;;;24.03;18.13;;;;;;;6.67;49.31;100102.31;4144319;28;20273;-32
2022/03/20 01:26:29;;;;;;;23.17;17.40;;;;;;;6.18;50.08;100104.50;4141931;28;20265;-33
2022/03/20 01:28:31;;;;;;;21.60;17.27;;;;;;;6.09;50.17;100107.84;4155471;28;20228;-32
2022/03/20 01:30:33;;;;;;;24.53;18.43;;;;;;;6.38;49.92;100105.50;4153955;28;20236;-33
2022/03/20 01:32:35;;;;;;;21.40;16.97;;;;;;;6.34;49.60;100114.66;4139943;28;20218;-31
2022/03/20 01:34:40;;;;;;;23.33;18.37;;;;;;;5.74;50.34;100130.75;4159176;28;20587;-32
2022/03/20 01:36:42;;;;;;;23.13;18.00;;;;;;;6.39;49.69;100101.94;4165139;28;20230;-33
2022/03/20 01:38:43;;;;;;;24.93;18.37;;;;;;;5.96;49.56;100134.34;4162041;28;20204;-34
2022/03/20 01:40:46;;;;;;;23.93;17.33;;;;;;;6.15;49.39;100100.28;4139892;28;20577;-34
2022/03/20 01:42:48;;;;;;;23.20;17.73;;;;;;;6.24;49.87;100100.50;4155049;28;20219;-33
2022/03/20 01:44:50;;;;;;;21.60;18.07;;;;;;;6.09;49.37;100121.88;4157282;28;20592;-32
2022/03/20 01:46:52;;;;;;;23.50;18.33;;;;;;;5.10;51.26;100107.47;4154040;28;20297;-32
2022/03/20 01:48:54;;;;;;;23.40;17.63;;;;;;;5.64;50.29;100106.06;4156375;28;20821;-31
2022/03/20 01:50:56;;;;;;;22.60;17.60;;;;;;;6.16;49.66;100088.78;4157101;28;20241;-31
2022/03/20 01:52:58;;;;;;;21.63;17.77;;;;;;;6.27;48.96;100089.72;4158377;28;20267;-31
2022/03/20 01:55:01;;;;;;;23.13;17.87;;;;;;;6.08;50.10;100063.91;4156322;28;20615;-31
2022/03/20 01:57:03;;;;;;;22.43;17.53;;;;;;;5.80;49.78;100081.94;4153420;28;20236;-32
2022/03/20 01:59:05;;;;;;;24.30;17.33;;;;;;;5.50;50.33;100082.53;4152176;28;21503;-31
2022/03/20 02:01:06;;;;;;;22.77;16.10;;;;;;;6.32;49.38;100055.84;4159643;28;20250;-31
2022/03/20 02:03:08;;;;;;;21.03;16.80;;;;;;;6.15;49.07;100075.69;4159626;28;20231;-31
2022/03/20 02:05:12;;;;;;;22.90;17.10;;;;;;;5.53;49.51;100121.84;4163378;28;20228;-31
2022/03/20 02:07:15;;;;;;;22.17;17.40;;;;;;;5.80;49.78;100061.66;4155859;28;20265;-37
2022/03/20 02:09:17;;;;;;;26.13;18.10;;;;;;;6.32;48.88;100071.69;4159554;28;20239;-32
2022/03/20 02:11:20;;;;;;;21.63;16.40;;;;;;;6.05;49.05;100067.66;4145546;28;20240;-32
2022/03/20 02:13:22;;;;;;;22.70;17.53;;;;;;;6.08;48.85;100066.56;4161644;28;20236;-32
2022/03/20 02:15:24;;;;;;;22.13;16.10;;;;;;;6.28;48.87;100041.19;4167444;28;20236;-32
2022/03/20 02:17:28;;;;;;;22.67;16.20;;;;;;;5.89;49.29;100046.06;4160077;28;20404;-32
2022/03/20 02:19:34;;;;;;;20.70;16.80;;;;;;;5.61;49.85;100058.81;4166118;28;20278;-31
2022/03/20 02:21:43;;;;;;;21.03;16.77;;;;;;;5.49;50.13;100060.59;4161683;28;20235;-32
2022/03/20 02:23:45;;;;;;;20.50;16.57;;;;;;;5.20;50.04;100075.94;4161892;28;20231;-31
2022/03/20 02:25:49;;;;;;;26.53;17.73;;;;;;;5.63;49.48;100077.97;4160608;28;20721;-32
2022/03/20 02:27:51;;;;;;;21.50;15.47;;;;;;;5.94;48.89;100050.00;4160465;28;20305;-32
2022/03/20 02:29:57;;;;;;;22.23;16.33;;;;;;;5.80;49.39;100040.56;4140121;28;20236;-35
2022/03/20 02:32:00;;;;;;;20.13;15.70;;;;;;;5.91;49.28;100031.81;4162226;28;20233;-31
2022/03/20 02:34:01;;;;;;;20.50;15.80;;;;;;;5.26;49.83;100049.13;4163661;28;20239;-31
2022/03/20 02:36:03;;;;;;;21.93;17.33;;;;;;;5.80;48.90;100063.47;4161204;28;20293;-33
2022/03/20 02:38:10;;;;;;;24.90;16.90;;;;;;;6.29;48.44;100048.16;4160672;28;20236;-31
2022/03/20 02:40:13;;;;;;;23.97;17.33;;;;;;;5.88;48.87;100047.88;4165068;28;20250;-31
2022/03/20 02:42:16;;;;;;;22.67;16.87;;;;;;;6.29;48.48;100038.44;4163735;28;20240;-31
2022/03/20 02:44:18;;;;;;;23.27;16.60;;;;;;;6.62;47.82;100026.09;4159680;28;20228;-32
2022/03/20 02:46:20;;;;;;;22.60;16.07;;;;;;;6.14;47.99;100061.63;4166976;28;20877;-32
2022/03/20 02:48:22;;;;;;;23.50;16.00;;;;;;;6.58;47.26;100047.59;4161618;28;20274;-31
2022/03/20 02:50:29;;;;;;;21.60;16.20;;;;;;;6.73;47.15;100026.03;4160940;28;20235;-31
2022/03/20 02:52:42;;;;;;;21.20;16.10;;;;;;;6.04;48.46;100055.41;4144342;28;20236;-31
2022/03/20 02:54:44;;;;;;;21.87;16.47;;;;;;;6.08;48.79;100027.81;4148724;28;20240;-32
2022/03/20 02:56:46;;;;;;;19.40;16.37;;;;;;;6.40;48.25;100027.00;4151317;28;20216;-31
2022/03/20 02:58:49;;;;;;;20.63;16.87;;;;;;;5.08;50.06;100056.63;4142071;28;20247;-30
2022/03/20 03:00:52;;;;;;;21.77;15.60;;;;;;;6.05;48.70;100022.78;4146027;28;20272;-31
2022/03/20 03:02:56;;;;;;;19.17;15.63;;;;;;;5.75;48.96;100044.53;4145789;28;20306;-31
2022/03/20 03:04:59;;;;;;;21.13;16.83;;;;;;;5.85;49.14;100010.34;4149123;28;20240;-31
2022/03/20 03:07:02;;;;;;;22.03;17.03;;;;;;;6.22;48.27;100026.69;4145097;28;20713;-34
2022/03/20 03:11:32;;;;;;;20.30;15.43;;;;;;;5.26;50.00;100004.31;4128619;28;20311;-33
2022/03/20 03:13:39;;;;;;;22.13;16.47;;;;;;;5.80;48.40;100032.63;4149714;28;20228;-31
2022/03/20 03:15:41;;;;;;;20.43;16.20;;;;;;;5.46;48.57;100066.09;4148073;28;20370;-32
2022/03/20 03:17:43;;;;;;;20.17;15.83;;;;;;;4.22;51.15;100061.16;4148732;28;20224;-31
2022/03/20 03:19:44;;;;;;;20.40;16.17;;;;;;;5.34;49.40;100046.78;4140214;28;20287;-32
2022/03/20 03:21:46;;;;;;;20.20;16.03;;;;;;;6.17;48.40;100026.22;4140458;28;20853;-31
2022/03/20 03:23:48;;;;;;;21.67;16.17;;;;;;;5.77;49.14;100019.69;4147306;28;20244;-32
2022/03/20 03:25:49;;;;;;;20.00;15.20;;;;;;;6.57;47.33;100016.84;4141880;28;20698;-32
2022/03/20 03:27:52;;;;;;;21.40;16.90;;;;;;;6.54;47.78;100007.38;4143801;28;20244;-32
2022/03/20 03:29:54;;;;;;;21.23;16.17;;;;;;;5.56;49.08;100034.56;4143095;28;20289;-31
2022/03/20 03:31:56;;;;;;;24.50;16.83;;;;;;;6.38;48.05;100001.69;4148073;28;20717;-32
2022/03/20 03:36:18;;;;;;;19.13;15.57;;;;;;;6.14;48.27;100000.91;4160285;28;20232;-30
2022/03/20 03:38:22;;;;;;;22.93;16.53;;;;;;;6.17;48.42;100000.66;4160368;28;20342;-30
2022/03/20 03:40:25;;;;;;;23.33;16.63;;;;;;;6.71;47.30;100009.47;4151115;28;20291;-32
2022/03/20 03:42:27;;;;;;;20.37;16.27;;;;;;;5.78;48.58;100031.91;4158789;28;20227;-32
2022/03/20 03:44:30;;;;;;;22.37;16.03;;;;;;;6.28;48.08;100015.66;4154350;28;20240;-29
2022/03/20 03:46:31;;;;;;;22.13;16.33;;;;;;;6.19;47.79;100018.19;4127826;28;20291;-29
2022/03/20 03:48:33;;;;;;;20.27;16.20;;;;;;;6.38;47.59;100005.16;4136474;28;20334;-30
2022/03/20 03:50:39;;;;;;;18.60;15.77;;;;;;;6.38;47.74;100010.44;4141717;28;20208;-30
2022/03/20 03:52:41;;;;;;;20.63;16.53;;;;;;;5.60;49.19;100004.34;4148414;28;20284;-30
2022/03/20 03:54:42;;;;;;;23.47;15.10;;;;;;;6.27;48.25;99999.91;4145703;28;20241;-29
2022/03/20 03:56:45;;;;;;;21.73;16.57;;;;;;;6.49;47.38;100010.41;4147842;28;20209;-30
2022/03/20 03:58:47;;;;;;;21.07;16.63;;;;;;;6.74;47.25;100018.94;4146607;28;20213;-30
2022/03/20 04:00:48;;;;;;;18.23;15.90;;;;;;;6.82;46.86;100013.88;4152217;28;20212;-29
2022/03/20 04:02:50;;;;;;;21.33;16.33;;;;;;;6.48;46.96;100042.22;4147045;28;20363;-31
2022/03/20 04:04:52;;;;;;;21.23;15.80;;;;;;;6.70;47.11;100025.44;4148163;28;20248;-31
2022/03/20 04:06:54;;;;;;;22.13;16.50;;;;;;;6.65;47.65;100022.34;4142374;28;20259;-29
2022/03/20 04:08:56;;;;;;;24.97;14.83;;;;;;;6.75;47.34;100035.63;4148375;28;20229;-30
2022/03/20 04:10:58;;;;;;;20.90;16.50;;;;;;;6.75;46.94;100028.53;4149321;28;20240;-30
2022/03/20 04:12:59;;;;;;;20.97;16.17;;;;;;;6.68;47.16;100022.91;4146156;28;20231;-30
2022/03/20 04:15:02;;;;;;;22.73;17.13;;;;;;;6.69;46.90;100031.72;4147610;28;20235;-32
2022/03/20 04:17:05;;;;;;;22.77;15.67;;;;;;;6.75;46.75;100033.81;4150971;28;20231;-30
2022/03/20 04:19:07;;;;;;;21.63;16.93;;;;;;;6.77;46.97;100024.00;4149210;28;20282;-29
2022/03/20 04:21:10;;;;;;;17.27;15.40;;;;;;;7.02;46.28;100019.31;4149391;28;20717;-29
2022/03/20 04:25:33;;;;;;;19.17;16.17;;;;;;;6.73;46.88;100031.31;4148409;28;20237;-33
2022/03/20 04:27:35;;;;;;;19.20;14.90;;;;;;;6.66;47.16;100016.94;4150293;28;20319;-29
2022/03/20 04:29:36;;;;;;;19.43;15.33;;;;;;;6.69;47.12;100037.00;4151788;28;20237;-30
2022/03/20 04:31:40;;;;;;;20.47;15.63;;;;;;;6.76;46.75;100024.13;4148019;28;20236;-32
2022/03/20 04:33:47;;;;;;;21.67;16.03;;;;;;;6.89;46.24;100043.28;4150297;28;20972;-29
2022/03/20 04:35:49;;;;;;;23.30;16.93;;;;;;;6.62;46.75;100051.66;4147123;28;20237;-30
2022/03/20 04:37:52;;;;;;;19.37;15.23;;;;;;;6.70;46.47;100052.72;4148065;28;20259;-31
2022/03/20 04:39:54;;;;;;;19.07;14.70;;;;;;;7.05;46.26;100038.38;4148188;28;20257;-30
2022/03/20 04:41:56;;;;;;;24.20;15.73;;;;;;;6.23;47.40;100060.06;4152346;28;20233;-30
2022/03/20 04:43:58;;;;;;;20.30;16.10;;;;;;;7.09;46.21;100038.97;4148951;28;20713;-30
2022/03/20 04:46:00;;;;;;;21.47;16.03;;;;;;;7.01;46.05;100047.56;4145107;28;20233;-31
2022/03/20 04:59:45;;;;;;;23.97;18.73;;;;;;;7.08;46.04;100042.59;4145549;28;20690;-33
2022/03/20 05:01:47;;;;;;;22.23;19.53;;;;;;;6.96;46.26;100059.50;4152921;28;20231;-30
2022/03/20 05:03:49;;;;;;;24.30;19.20;;;;;;;7.32;45.60;100037.03;4146258;28;20752;-31
2022/03/20 05:05:51;;;;;;;25.83;19.27;;;;;;;7.14;45.79;100047.34;4151020;28;20228;-33
2022/03/20 05:07:53;;;;;;;21.83;17.33;;;;;;;7.07;45.84;100057.63;4151232;28;20813;-29
2022/03/20 05:14:42;;;;;;;18.23;15.33;;;;;;;7.17;45.92;100062.13;4121921;28;20237;-31
2022/03/20 05:16:44;;;;;;;20.00;15.57;;;;;;;7.24;46.07;100058.84;4126087;28;20206;-31
2022/03/20 05:18:46;;;;;;;23.40;15.77;;;;;;;7.03;46.42;100069.41;4126205;28;20214;-30
2022/03/20 05:20:48;;;;;;;24.47;16.37;;;;;;;7.03;46.44;100065.94;4124318;28;20210;-30
2022/03/20 05:22:50;;;;;;;19.47;15.37;;;;;;;6.98;46.35;100063.66;4125248;28;20601;-33
2022/03/20 05:24:53;;;;;;;20.60;15.67;;;;;;;7.09;45.89;100068.03;4124106;28;20700;-31
2022/03/20 05:26:54;;;;;;;20.23;14.97;;;;;;;6.89;46.45;100073.19;4125663;28;20308;-29
2022/03/20 05:28:56;;;;;;;21.43;15.90;;;;;;;7.14;46.18;100059.75;4125075;28;20269;-32
2022/03/20 05:30:58;;;;;;;22.83;15.73;;;;;;;6.88;46.58;100068.84;4125999;28;20247;-31
2022/03/20 05:33:00;;;;;;;19.43;15.80;;;;;;;6.76;46.31;100069.88;4124964;28;20724;-31
2022/03/20 05:35:04;;;;;;;19.73;16.47;;;;;;;6.69;46.54;100058.97;4127913;28;20255;-31
2022/03/20 05:37:07;;;;;;;23.47;15.90;;;;;;;6.50;46.83;100062.28;4121801;28;20346;-30
2022/03/20 05:39:09;;;;;;;22.30;16.13;;;;;;;6.72;46.60;100065.78;4125435;28;20687;-29
2022/03/20 05:43:31;;;;;;;18.63;15.10;;;;;;;6.80;46.78;100091.59;4124964;28;20883;-31
2022/03/20 05:45:34;;;;;;;21.07;15.27;;;;;;;6.48;46.68;100092.41;4124895;28;20249;-31
2022/03/20 05:47:36;;;;;;;23.30;16.20;;;;;;;6.27;47.32;100079.16;4124936;28;20233;-31
2022/03/20 05:49:38;;;;;;;22.00;15.30;;;;;;;6.44;47.01;100075.97;4125072;28;20279;-30
2022/03/20 05:51:40;;;;;;;18.87;15.23;;;;;;;6.45;47.42;100077.66;4124890;28;22252;-30
2022/03/20 05:53:41;;;;;;;18.80;15.73;;;;;;;6.64;46.92;100070.88;4123535;28;20237;-30
2022/03/20 05:58:03;;;;;;;20.27;14.73;;;;;;;6.34;46.98;100086.44;4125338;28;20225;-32
2022/03/20 06:00:05;;;;;;;18.50;15.30;;;;;;;6.67;47.04;100070.59;4124496;28;20233;-30
2022/03/20 06:02:09;;;;;;;20.43;16.17;;;;;;;6.73;46.81;100083.34;4124994;28;20350;-31
2022/03/20 06:04:12;;;;;;;20.97;15.50;;;;;;;6.86;46.79;100081.34;4120494;28;21026;-31
2022/03/20 06:06:13;;;;;;;22.10;16.37;;;;;;;6.84;46.94;100087.75;4121305;28;20244;-31
2022/03/20 06:08:15;;;;;;;22.87;15.70;;;;;;;6.70;47.05;100076.50;4122862;28;20244;-32
2022/03/20 06:10:18;;;;;;;20.23;15.27;;;;;;;6.71;47.12;100085.25;4124869;28;20264;-30
2022/03/20 06:12:20;;;;;;;19.33;15.57;;;;;;;6.69;47.37;100089.84;4126007;28;20661;-30
2022/03/20 06:14:22;;;;;;;19.47;15.67;;;;;;;6.71;47.40;100099.31;4123608;28;20233;-33
2022/03/20 06:16:24;;;;;;;20.03;15.43;;;;;;;6.60;47.38;100106.44;4125189;28;20716;-32
2022/03/20 06:18:26;;;;;;;23.13;17.77;;;;;;;6.62;47.52;100105.34;4124738;28;20240;-32
2022/03/20 06:20:28;;;;;;;20.63;15.73;;;;;;;6.73;47.10;100120.31;4123524;28;20868;-31
2022/03/20 06:22:29;;;;;;;19.73;15.40;;;;;;;6.74;47.06;100124.66;4124682;28;20283;-29
2022/03/20 06:24:32;;;;;;;20.03;14.93;;;;;;;6.22;47.54;100136.78;4125276;28;20631;-31
2022/03/20 06:26:34;;;;;;;22.43;15.80;;;;;;;6.62;47.52;100112.44;4149795;28;20250;-30
2022/03/20 06:28:40;;;;;;;19.73;15.30;;;;;;;6.71;47.46;100117.81;4155157;28;20236;-31
2022/03/20 06:30:43;;;;;;;21.33;16.23;;;;;;;6.85;47.41;100116.66;4141901;28;20210;-30
2022/03/20 06:32:46;;;;;;;20.03;15.13;;;;;;;6.69;47.73;100121.56;4148294;28;20258;-30
2022/03/20 06:34:48;;;;;;;22.13;16.17;;;;;;;7.03;46.96;100118.81;4141554;28;20750;-30
2022/03/20 06:36:50;;;;;;;19.30;14.63;;;;;;;7.15;46.60;100114.31;4142125;28;20205;-31
2022/03/20 06:38:52;;;;;;;22.07;15.07;;;;;;;6.70;47.25;100131.16;4142696;28;20297;-30
2022/03/20 06:40:53;;;;;;;21.63;15.13;;;;;;;6.97;46.89;100100.81;4147938;28;20241;-32
2022/03/20 06:42:55;;;;;;;22.70;15.13;;;;;;;6.71;47.15;100119.63;4150321;28;20300;-29
2022/03/20 06:44:59;;;;;;;19.77;15.80;;;;;;;7.16;46.57;100119.47;4146435;28;20693;-30
2022/03/20 06:47:01;;;;;;;18.67;14.37;;;;;;;7.28;46.34;100118.44;4151372;28;20806;-29
2022/03/20 06:49:02;;;;;;;18.70;15.33;;;;;;;7.03;46.88;100135.50;4148206;28;20236;-30
2022/03/20 06:51:04;;;;;;;18.57;15.43;;;;;;;7.13;46.98;100146.19;4147757;28;20239;-30
2022/03/20 06:53:06;;;;;;;21.33;15.63;;;;;;;6.85;47.33;100142.28;4150411;28;20237;-30
2022/03/20 06:55:12;;;;;;;19.77;15.17;;;;;;;7.04;46.94;100142.50;4149293;28;20784;-30
2022/03/20 06:57:18;;;;;;;22.77;16.93;;;;;;;6.75;47.16;100154.56;4159187;28;20233;-30
2022/03/20 06:59:19;;;;;;;20.97;16.97;;;;;;;7.00;46.72;100129.63;4148700;28;20235;-31
2022/03/20 07:01:21;;;;;;;21.20;16.13;;;;;;;6.84;47.32;100152.03;4148164;28;20229;-31
2022/03/20 07:03:23;;;;;;;21.20;15.87;;;;;;;7.00;47.19;100138.41;4151551;28;20232;-30
2022/03/20 07:05:25;;;;;;;20.80;16.17;;;;;;;7.37;46.94;100135.34;4148296;28;20252;-29
2022/03/20 07:07:27;;;;;;;20.13;15.17;;;;;;;7.34;47.07;100140.06;4152494;28;20232;-29
2022/03/20 07:09:29;;;;;;;20.07;16.07;;;;;;;7.26;47.24;100160.06;4141491;28;20264;-30
2022/03/20 07:11:32;;;;;;;19.97;15.63;;;;;;;7.47;47.11;100144.19;4148717;28;20225;-31
2022/03/20 07:13:52;;;;;;;20.87;16.03;;;;;;;7.62;46.64;100131.47;4145202;28;20233;-30
2022/03/20 07:15:57;;;;;;;22.77;16.57;;;;;;;7.58;46.86;100130.06;4141238;28;20296;-31
2022/03/20 07:17:59;;;;;;;19.57;16.23;;;;;;;7.43;47.00;100157.81;4146498;28;20236;-32
2022/03/20 07:20:01;;;;;;;19.67;15.10;;;;;;;7.61;47.01;100148.34;4143681;28;20237;-29
2022/03/20 07:22:04;;;;;;;20.13;15.67;;;;;;;7.56;46.86;100161.09;4149560;28;21047;-31
2022/03/20 07:24:06;;;;;;;20.07;15.27;;;;;;;7.80;46.15;100152.03;4150906;28;20244;-29
2022/03/20 07:30:49;;;;;;;19.90;15.80;;;;;;;8.06;46.70;100128.63;4141729;28;20738;-31
2022/03/20 07:32:51;;;;;;;21.30;15.87;;;;;;;7.51;47.47;100165.94;4145163;28;20244;-30
2022/03/20 07:34:53;;;;;;;21.30;15.20;;;;;;;7.51;48.28;100173.03;4147703;28;20245;-31
2022/03/20 07:36:55;;;;;;;21.67;15.97;;;;;;;7.69;47.85;100150.31;4158999;28;20310;-32
2022/03/20 07:38:56;;;;;;;21.10;16.57;;;;;;;8.00;47.44;100143.25;4155101;28;20247;-31
2022/03/20 07:40:59;;;;;;;18.10;15.40;;;;;;;8.18;47.20;100135.50;4156396;28;21115;-29
2022/03/20 07:43:00;;;;;;;20.60;15.60;;;;;;;8.34;46.92;100136.81;4149964;28;20237;-29
2022/03/20 07:45:03;;;;;;;24.27;17.03;;;;;;;8.02;47.40;100164.31;4148900;28;20295;-30
2022/03/20 07:47:08;;;;;;;22.37;16.97;;;;;;;7.73;48.00;100178.22;4153299;28;20235;-31
2022/03/20 07:49:10;;;;;;;24.53;18.00;;;;;;;7.99;48.02;100157.44;4151759;28;20284;-30
2022/03/20 07:51:16;;;;;;;26.47;17.93;;;;;;;8.43;47.32;100135.19;4154131;28;20237;-30
2022/03/20 07:53:19;;;;;;;23.90;19.07;;;;;;;8.10;48.37;100151.22;4186211;28;20575;-30
2022/03/20 07:55:21;;;;;;;21.87;17.87;;;;;;;8.13;47.63;100152.75;4149187;28;20768;-31
2022/03/20 07:57:23;;;;;;;23.33;17.70;;;;;;;7.32;48.30;100189.63;4155948;28;20282;-32
2022/03/20 07:59:25;;;;;;;20.73;16.40;;;;;;;7.98;48.28;100165.53;4145152;28;20295;-31
2022/03/20 08:01:28;;;;;;;26.13;18.33;;;;;;;7.75;48.33;100186.00;4149127;28;20803;-32
2022/03/20 08:03:30;;;;;;;25.37;18.97;;;;;;;8.14;48.19;100159.75;4152589;28;20236;-32
2022/03/20 08:05:31;;;;;;;23.90;18.23;;;;;;;8.40;47.04;100146.91;4150203;28;20255;-33
2022/03/20 08:07:38;;;;;;;27.73;20.33;;;;;;;8.36;47.65;100162.22;4152600;28;20232;-30
2022/03/20 08:09:39;;;;;;;25.03;19.37;;;;;;;8.29;47.42;100160.19;4140001;28;20269;-31
2022/03/20 08:11:41;;;;;;;24.43;17.90;;;;;;;7.73;47.99;100187.94;4184551;28;20249;-31
2022/03/20 08:13:44;;;;;;;21.67;16.43;;;;;;;8.33;47.44;100169.59;4142903;28;20714;-30
2022/03/20 08:15:46;;;;;;;19.50;15.60;;;;;;;8.50;47.45;100154.88;4142002;28;20226;-31
2022/03/20 08:17:50;;;;;;;19.73;16.10;;;;;;;8.42;47.00;100162.66;4143526;28;20237;-33
2022/03/20 08:19:51;;;;;;;23.70;16.40;;;;;;;8.18;47.36;100183.16;4143160;28;20605;-30
2022/03/20 08:21:53;;;;;;;23.30;16.63;;;;;;;8.61;46.72;100146.81;4144605;28;20619;-29
2022/03/20 08:23:55;;;;;;;23.43;16.97;;;;;;;8.72;46.39;100151.97;4178953;28;20334;-31
2022/03/20 08:25:57;;;;;;;22.87;16.87;;;;;;;8.06;48.05;100202.78;4148396;28;20245;-31
2022/03/20 08:27:59;;;;;;;21.53;16.07;;;;;;;8.45;47.16;100183.59;4153428;28;20789;-31
2022/03/20 08:30:00;;;;;;;20.87;15.53;;;;;;;8.67;46.50;100172.75;4146178;28;20232;-33
2022/03/20 08:32:02;;;;;;;24.13;16.80;;;;;;;8.63;46.82;100189.09;4149921;28;20240;-32
2022/03/20 08:34:05;;;;;;;19.70;16.60;;;;;;;8.54;46.82;100196.03;4151721;28;20698;-31
2022/03/20 08:36:08;;;;;;;24.07;17.13;;;;;;;8.24;48.06;100229.50;4150028;28;20238;-31
2022/03/20 08:38:10;;;;;;;27.03;20.40;;;;;;;8.10;48.09;100240.44;4166596;28;20241;-33
2022/03/20 08:40:17;;;;;;;30.90;19.97;;;;;;;8.58;47.57;100210.69;4153180;28;20237;-32
2022/03/20 08:42:18;;;;;;;30.43;20.90;;;;;;;8.68;47.32;100213.38;4147915;28;20284;-33
2022/03/20 08:44:20;;;;;;;22.67;18.33;;;;;;;8.55;47.38;100222.41;4150295;28;20593;-31
2022/03/20 08:46:23;;;;;;;27.50;19.03;;;;;;;7.87;48.68;100259.13;4152383;28;20276;-32
2022/03/20 08:48:25;;;;;;;25.80;18.17;;;;;;;8.35;48.18;100233.91;4167911;28;20252;-30
2022/03/20 08:50:26;;;;;;;25.07;18.47;;;;;;;8.83;47.99;100219.97;4164870;28;20352;-30
2022/03/20 08:52:28;;;;;;;24.00;18.57;;;;;;;7.65;50.65;100236.25;4146182;28;20718;-31
2022/03/20 08:54:30;;;;;;;25.80;17.43;;;;;;;6.81;50.79;100310.84;4147881;28;20735;-31
2022/03/20 08:56:33;;;;;;;25.17;17.87;;;;;;;7.39;50.10;100267.50;4153351;28;20236;-31
2022/03/20 08:58:35;;;;;;;27.83;19.53;;;;;;;7.78;50.30;100263.38;4153570;28;20232;-33
2022/03/20 09:00:37;;;;;;;24.30;17.37;;;;;;;8.15;49.32;100239.09;4151111;28;20201;-32
2022/03/20 09:02:39;;;;;;;28.90;21.10;;;;;;;9.04;48.41;100200.47;4147896;28;20214;-33
2022/03/20 09:04:41;;;;;;;26.60;20.33;;;;;;;8.64;48.56;100235.81;4147410;28;20221;-32
2022/03/20 09:06:47;;;;;;;28.93;21.40;;;;;;;7.84;50.94;100272.59;4148280;28;20267;-32
2022/03/20 09:08:50;;;;;;;29.77;21.47;;;;;;;8.33;49.94;100249.94;4146508;28;20264;-33
2022/03/20 09:10:52;;;;;;;23.93;18.07;;;;;;;8.67;49.33;100228.44;4145876;28;20298;-33
2022/03/20 09:12:55;;;;;;;24.13;18.80;;;;;;;8.72;49.62;100230.69;4150452;28;20244;-32
2022/03/20 09:14:57;;;;;;;22.50;18.60;;;;;;;8.37;50.05;100245.19;4144399;28;20278;-32
2022/03/20 09:19:20;;;;;;;23.97;18.93;;;;;;;8.18;51.25;100265.28;4149993;28;20272;-32
2022/03/20 09:21:21;;;;;;;21.77;18.13;;;;;;;8.47;50.49;100240.78;4142793;28;20234;-32
2022/03/20 09:23:23;;;;;;;24.13;19.10;;;;;;;7.36;52.06;100291.56;4142897;28;20278;-32
2022/03/20 09:25:25;;;;;;;25.83;17.80;;;;;;;8.16;51.34;100258.47;4144071;28;20287;-32
2022/03/20 09:27:27;;;;;;;23.83;18.67;;;;;;;6.48;54.34;100312.50;4143590;28;20606;-32
2022/03/20 09:29:29;;;;;;;24.60;18.80;;;;;;;7.96;52.37;100246.91;4140616;28;20238;-32
2022/03/20 09:31:31;;;;;;;23.57;18.20;;;;;;;9.03;50.20;100210.25;4149889;28;20236;-32
2022/03/20 09:33:34;;;;;;;23.07;20.10;;;;;;;7.05;55.35;100280.81;4144039;28;20741;-32
2022/03/20 09:35:36;;;;;;;23.77;18.63;;;;;;;8.44;52.03;100251.66;4179719;22;20286;-35
2022/03/20 09:37:39;;;;;;;23.40;17.97;;;;;;;7.75;54.42;100258.34;4182044;28;20262;-35
2022/03/20 09:39:40;;;;;;;26.27;18.87;;;;;;;7.99;53.13;100258.06;4190164;28;20285;-34
2022/03/20 09:41:46;;;;;;;22.50;18.87;;;;;;;6.70;57.28;100268.56;4174623;28;20231;-34
2022/03/20 09:43:48;;;;;;;23.93;19.00;;;;;;;7.02;55.10;100310.97;4189275;28;20249;-32
2022/03/20 09:45:52;;;;;;;25.30;19.50;;;;;;;7.90;54.29;100274.75;4185800;28;20240;-33
2022/03/20 09:47:56;;;;;;;24.53;19.00;;;;;;;8.49;52.42;100246.81;4179442;28;20240;-33
2022/03/20 09:49:58;;;;;;;24.90;20.00;;;;;;;8.01;54.32;100250.84;4181939;28;20233;-33
2022/03/20 09:52:06;;;;;;;23.97;19.20;;;;;;;8.45;52.79;100257.81;4187334;28;20934;-33
2022/03/20 09:54:08;;;;;;;26.23;20.10;;;;;;;8.42;53.94;100247.47;4170895;28;20314;-32
2022/03/20 09:56:11;;;;;;;23.57;18.73;;;;;;;8.72;52.58;100236.00;4176217;28;20254;-34
2022/03/20 09:58:13;;;;;;;24.83;19.60;;;;;;;9.24;51.90;100206.63;4170005;28;20229;-33